createdAt,value
2023-02-06T00:00:44.885Z,527.00
2023-02-06T00:01:44.941Z,524.00
2023-02-06T00:02:45.010Z,524.00
2023-02-06T00:03:45.064Z,522.00
2023-02-06T00:04:45.072Z,523.00
2023-02-06T00:05:45.184Z,524.00
2023-02-06T00:06:45.166Z,526.00
2023-02-06T00:10:45.339Z,523.00
2023-02-06T00:11:45.374Z,523.00
2023-02-06T00:12:45.426Z,525.00
2023-02-06T00:13:45.487Z,525.00
2023-02-06T00:14:45.470Z,526.00
2023-02-06T00:15:45.595Z,527.00
2023-02-06T00:16:45.620Z,526.00
2023-02-06T00:17:45.613Z,525.00
2023-02-06T00:18:45.647Z,527.00
2023-02-06T00:19:45.706Z,530.00
2023-02-06T00:20:45.748Z,528.00
2023-02-06T00:21:45.775Z,527.00
2023-02-06T00:22:45.887Z,527.00
2023-02-06T00:23:45.861Z,528.00
2023-02-06T00:24:45.857Z,527.00
2023-02-06T00:25:45.913Z,528.00
2023-02-06T00:26:45.926Z,528.00
2023-02-06T00:27:45.985Z,528.00
2023-02-06T00:28:45.962Z,528.00
2023-02-06T00:29:45.994Z,530.00
2023-02-06T00:30:46.066Z,531.00
2023-02-06T00:31:46.043Z,529.00
2023-02-06T00:32:46.044Z,527.00
2023-02-06T00:33:45.995Z,529.00
2023-02-06T00:34:46.020Z,528.00
2023-02-06T00:35:46.015Z,528.00
2023-02-06T00:36:46.033Z,529.00
2023-02-06T00:37:46.029Z,527.00
2023-02-06T00:40:46.057Z,528.00
2023-02-06T00:41:46.097Z,525.00
2023-02-06T00:42:46.095Z,524.00
2023-02-06T00:43:46.186Z,526.00
2023-02-06T00:44:46.229Z,527.00
2023-02-06T00:45:46.246Z,525.00
2023-02-06T00:46:46.368Z,523.00
2023-02-06T00:47:46.383Z,524.00
2023-02-06T00:48:46.428Z,525.00
2023-02-06T00:49:46.491Z,525.00
2023-02-06T00:50:46.520Z,525.00
2023-02-06T00:51:46.605Z,523.00
2023-02-06T00:52:46.681Z,525.00
2023-02-06T00:53:47.476Z,525.00
2023-02-06T00:54:46.722Z,524.00
2023-02-06T00:55:46.782Z,526.00
2023-02-06T00:56:46.833Z,526.00
2023-02-06T00:58:46.933Z,529.00
2023-02-06T00:59:46.972Z,530.00
2023-02-06T01:00:47.057Z,529.00
2023-02-06T01:35:48.973Z,515.00
2023-02-06T01:36:48.969Z,516.00
2023-02-06T01:37:49.036Z,516.00
2023-02-06T01:38:49.063Z,516.00
2023-02-06T01:39:49.134Z,515.00
2023-02-06T01:40:49.136Z,515.00
2023-02-06T01:41:49.222Z,516.00
2023-02-06T01:42:49.252Z,518.00
2023-02-06T03:35:52.485Z,516.00
2023-02-06T03:36:52.483Z,514.00
2023-02-06T03:37:52.510Z,515.00
2023-02-06T03:38:52.493Z,514.00
2023-02-06T03:39:52.500Z,513.00
2023-02-06T03:40:52.482Z,514.00
2023-02-06T03:41:52.535Z,515.00
2023-02-06T03:42:52.548Z,515.00
2023-02-06T03:43:52.563Z,513.00
2023-02-06T03:44:52.556Z,513.00
2023-02-06T03:45:52.583Z,512.00
2023-02-06T03:46:52.531Z,513.00
2023-02-06T03:47:52.585Z,510.00
2023-02-06T03:48:52.709Z,509.00
2023-02-06T03:49:52.700Z,509.00
2023-02-06T03:50:52.731Z,509.00
2023-02-06T03:51:52.710Z,509.00
2023-02-06T03:52:52.689Z,510.00
2023-02-06T03:53:52.701Z,515.00
2023-02-06T03:54:52.782Z,515.00
2023-02-06T03:55:52.734Z,515.00
2023-02-06T03:56:52.738Z,513.00
2023-02-06T03:57:52.815Z,513.00
2023-02-06T03:58:52.783Z,511.00
2023-02-06T03:59:52.769Z,509.00
2023-02-06T04:00:52.806Z,509.00
2023-02-06T04:01:52.825Z,509.00
2023-02-06T04:02:52.806Z,508.00
2023-02-06T04:03:52.846Z,510.00
2023-02-06T04:04:52.815Z,514.00
2023-02-06T04:05:52.821Z,515.00
2023-02-06T04:06:52.883Z,517.00
2023-02-06T04:07:52.899Z,517.00
2023-02-06T04:08:52.894Z,517.00
2023-02-06T04:09:52.926Z,516.00
2023-02-06T04:10:52.890Z,516.00
2023-02-06T04:11:52.901Z,516.00
2023-02-06T04:12:52.982Z,516.00
2023-02-06T04:13:53.068Z,518.00
2023-02-06T04:14:53.159Z,517.00
2023-02-06T04:15:53.257Z,516.00
2023-02-06T04:16:53.352Z,513.00
2023-02-06T04:18:00.589Z,514.00
2023-02-06T04:18:54.436Z,514.00
2023-02-06T04:19:53.443Z,516.00
2023-02-06T04:20:53.423Z,518.00
2023-02-06T04:21:53.416Z,520.00
2023-02-06T04:22:53.427Z,520.00
2023-02-06T04:23:53.385Z,521.00
2023-02-06T04:24:53.365Z,521.00
2023-02-06T04:25:53.374Z,519.00
2023-02-06T04:26:53.414Z,518.00
2023-02-06T04:27:53.420Z,518.00
2023-02-06T04:28:53.381Z,518.00
2023-02-06T04:29:53.323Z,518.00
2023-02-06T04:30:53.386Z,520.00
2023-02-06T04:31:53.342Z,518.00
2023-02-06T04:32:53.345Z,515.00
2023-02-06T04:33:53.358Z,513.00
2023-02-06T04:34:53.312Z,511.00
2023-02-06T04:35:53.314Z,507.00
2023-02-06T04:36:53.313Z,507.00
2023-02-06T04:37:53.274Z,506.00
2023-02-06T04:38:53.319Z,506.00
2023-02-06T04:39:53.297Z,507.00
2023-02-06T04:40:53.278Z,510.00
2023-02-06T04:41:53.272Z,507.00
2023-02-06T04:42:53.270Z,507.00
2023-02-06T04:43:53.256Z,509.00
2023-02-06T04:44:53.222Z,506.00
2023-02-06T04:45:53.250Z,510.00
2023-02-06T04:46:53.231Z,510.00
2023-02-06T04:47:53.248Z,511.00
2023-02-06T04:48:53.218Z,511.00
2023-02-06T04:49:53.194Z,510.00
2023-02-06T04:50:53.191Z,513.00
2023-02-06T04:51:53.188Z,514.00
2023-02-06T04:52:53.181Z,516.00
2023-02-06T04:53:53.207Z,516.00
2023-02-06T04:54:53.203Z,515.00
2023-02-06T04:55:53.235Z,511.00
2023-02-06T04:56:53.277Z,512.00
2023-02-06T04:57:53.252Z,510.00
2023-02-06T04:58:53.295Z,509.00
2023-02-06T04:59:53.264Z,509.00
2023-02-06T05:00:53.285Z,509.00
2023-02-06T05:01:53.360Z,512.00
2023-02-06T05:02:53.461Z,512.00
2023-02-06T05:03:53.434Z,514.00
2023-02-06T05:04:53.421Z,515.00
2023-02-06T05:05:53.437Z,516.00
2023-02-06T05:06:53.456Z,514.00
2023-02-06T05:07:53.489Z,514.00
2023-02-06T05:08:53.480Z,512.00
2023-02-06T05:09:53.526Z,511.00
2023-02-06T05:10:53.568Z,512.00
2023-02-06T05:11:53.542Z,510.00
2023-02-06T05:12:53.611Z,508.00
2023-02-06T05:13:53.593Z,508.00
2023-02-06T05:14:53.595Z,511.00
2023-02-06T05:15:53.720Z,512.00
2023-02-06T05:16:53.728Z,510.00
2023-02-06T05:17:53.689Z,509.00
2023-02-06T05:18:53.724Z,510.00
2023-02-06T05:19:53.722Z,509.00
2023-02-06T05:20:53.767Z,510.00
2023-02-06T05:21:53.772Z,512.00
2023-02-06T05:22:53.821Z,511.00
2023-02-06T05:23:53.868Z,512.00
2023-02-06T05:24:53.897Z,511.00
2023-02-06T05:25:53.899Z,509.00
2023-02-06T05:26:53.916Z,511.00
2023-02-06T05:27:53.974Z,510.00
2023-02-06T05:28:54.012Z,508.00
2023-02-06T05:29:54.003Z,507.00
2023-02-06T05:30:54.112Z,508.00
2023-02-06T05:31:54.119Z,509.00
2023-02-06T05:32:54.116Z,508.00
2023-02-06T05:33:54.156Z,509.00
2023-02-06T05:34:54.176Z,512.00
2023-02-06T05:35:54.231Z,512.00
2023-02-06T05:36:54.256Z,513.00
2023-02-06T05:37:54.290Z,512.00
2023-02-06T05:38:54.346Z,514.00
2023-02-06T05:39:54.379Z,516.00
2023-02-06T05:40:54.410Z,518.00
2023-02-06T05:41:54.472Z,516.00
2023-02-06T05:42:54.491Z,518.00
2023-02-06T05:43:54.545Z,517.00
2023-02-06T05:44:54.570Z,518.00
2023-02-06T05:45:54.621Z,517.00
2023-02-06T05:46:54.641Z,517.00
2023-02-06T05:47:54.662Z,516.00
2023-02-06T05:48:54.706Z,515.00
2023-02-06T05:49:54.752Z,516.00
2023-02-06T05:50:54.804Z,518.00
2023-02-06T05:51:54.804Z,519.00
2023-02-06T05:52:54.905Z,514.00
2023-02-06T05:53:54.892Z,512.00
2023-02-06T05:54:54.937Z,512.00
2023-02-06T05:55:54.982Z,511.00
2023-02-06T05:56:55.013Z,509.00
2023-02-06T05:57:55.060Z,509.00
2023-02-06T05:58:55.174Z,509.00
2023-02-06T05:59:55.122Z,511.00
2023-02-06T06:01:02.742Z,511.00
2023-02-06T06:01:55.176Z,511.00
2023-02-06T06:02:55.165Z,510.00
2023-02-06T06:03:55.174Z,510.00
2023-02-06T06:04:55.171Z,511.00
2023-02-06T06:05:55.124Z,511.00
2023-02-06T06:06:55.154Z,509.00
2023-02-06T06:07:55.138Z,509.00
2023-02-06T06:08:55.130Z,511.00
2023-02-06T06:09:55.143Z,513.00
2023-02-06T06:10:55.121Z,516.00
2023-02-06T06:11:55.131Z,517.00
2023-02-06T06:12:55.147Z,520.00
2023-02-06T06:13:55.115Z,517.00
2023-02-06T06:14:55.098Z,516.00
2023-02-06T06:15:55.102Z,514.00
2023-02-06T06:16:55.066Z,514.00
2023-02-06T06:17:55.097Z,516.00
2023-02-06T06:18:55.101Z,515.00
2023-02-06T06:19:55.118Z,515.00
2023-02-06T06:20:55.141Z,515.00
2023-02-06T06:21:57.814Z,513.00
2023-02-06T06:22:55.204Z,512.00
2023-02-06T06:23:55.215Z,513.00
2023-02-06T06:24:55.228Z,514.00
2023-02-06T06:25:55.193Z,517.00
2023-02-06T06:26:55.237Z,517.00
2023-02-06T06:27:55.216Z,517.00
2023-02-06T06:28:55.184Z,514.00
2023-02-06T06:29:55.155Z,514.00
2023-02-06T06:30:55.174Z,514.00
2023-02-06T06:31:55.228Z,514.00
2023-02-06T06:32:55.730Z,516.00
2023-02-06T06:33:55.227Z,529.00
2023-02-06T06:34:55.157Z,530.00
2023-02-06T06:35:55.166Z,538.00
2023-02-06T06:36:55.179Z,552.00
2023-02-06T06:37:55.129Z,564.00
2023-02-06T06:38:55.775Z,574.00
2023-02-06T06:39:55.157Z,583.00
2023-02-06T06:40:55.108Z,595.00
2023-02-06T06:41:55.098Z,597.00
2023-02-06T06:42:55.114Z,598.00
2023-02-06T06:43:55.294Z,608.00
2023-02-06T06:44:55.067Z,611.00
2023-02-06T06:46:55.065Z,718.00
2023-02-06T06:47:55.037Z,723.00
2023-02-06T06:48:55.280Z,741.00
2023-02-06T06:49:55.033Z,771.00
2023-02-06T06:50:54.985Z,803.00
2023-02-06T06:51:55.027Z,835.00
2023-02-06T06:52:55.007Z,855.00
2023-02-06T06:53:55.251Z,866.00
2023-02-06T06:54:54.966Z,883.00
2023-02-06T06:55:54.970Z,939.00
2023-02-06T06:57:54.994Z,974.00
2023-02-06T06:58:54.992Z,998.00
2023-02-06T06:59:54.943Z,1031.00
2023-02-06T07:00:54.992Z,1063.00
2023-02-06T07:01:54.959Z,1095.00
2023-02-06T07:02:54.969Z,1116.00
2023-02-06T07:03:54.926Z,1137.00
2023-02-06T07:04:54.949Z,1184.00
2023-02-06T07:05:54.892Z,1192.00
2023-02-06T07:06:54.944Z,1212.00
2023-02-06T07:07:54.901Z,1242.00
2023-02-06T07:08:54.903Z,1254.00
2023-02-06T07:09:54.892Z,1269.00
2023-02-06T07:10:54.860Z,1292.00
2023-02-06T07:11:54.870Z,1308.00
2023-02-06T07:12:54.885Z,1323.00
2023-02-06T07:13:54.835Z,1339.00
2023-02-06T07:14:54.897Z,1356.00
2023-02-06T07:15:54.813Z,1375.00
2023-02-06T07:16:54.869Z,1392.00
2023-02-06T07:17:54.874Z,1417.00
2023-02-06T07:18:54.827Z,1450.00
2023-02-06T07:19:54.874Z,1468.00
2023-02-06T07:20:54.886Z,1485.00
2023-02-06T07:21:54.929Z,1513.00
2023-02-06T07:22:54.979Z,1536.00
2023-02-06T07:23:55.030Z,1560.00
2023-02-06T07:24:55.067Z,1582.00
2023-02-06T07:25:55.109Z,1608.00
2023-02-06T07:26:55.183Z,1628.00
2023-02-06T07:27:55.255Z,1640.00
2023-02-06T07:28:55.248Z,1672.00
2023-02-06T07:29:55.817Z,1691.00
2023-02-06T07:30:55.351Z,1718.00
2023-02-06T07:31:55.423Z,1736.00
2023-02-06T07:32:55.374Z,1775.00
2023-02-06T07:33:55.434Z,1800.00
2023-02-06T07:34:55.448Z,1823.00
2023-02-06T07:35:55.453Z,1896.00
2023-02-06T07:36:55.485Z,1946.00
2023-02-06T07:37:55.514Z,1952.00
2023-02-06T07:38:56.305Z,1964.00
2023-02-06T07:39:55.616Z,2023.00
2023-02-06T07:40:55.588Z,2024.00
2023-02-06T07:41:55.645Z,2010.00
2023-02-06T07:42:55.713Z,1476.00
2023-02-06T07:43:55.727Z,1181.00
2023-02-06T07:44:55.859Z,1162.00
2023-02-06T07:45:55.848Z,1036.00
2023-02-06T07:46:55.938Z,1148.00
2023-02-06T07:47:55.902Z,1189.00
2023-02-06T07:48:55.963Z,1184.00
2023-02-06T07:49:56.098Z,1407.00
2023-02-06T07:50:56.075Z,1412.00
2023-02-06T07:51:56.160Z,1384.00
2023-02-06T07:52:56.160Z,1381.00
2023-02-06T07:53:56.273Z,1379.00
2023-02-06T07:54:56.269Z,1380.00
2023-02-06T07:55:56.359Z,1386.00
2023-02-06T07:56:56.349Z,1390.00
2023-02-06T07:57:56.439Z,1394.00
2023-02-06T07:58:56.412Z,1395.00
2023-02-06T07:59:56.409Z,1397.00
2023-02-06T08:00:56.463Z,1399.00
2023-02-06T08:01:56.418Z,1403.00
2023-02-06T08:02:56.452Z,1411.00
2023-02-06T08:03:56.494Z,1415.00
2023-02-06T08:04:56.786Z,1426.00
2023-02-06T08:05:56.558Z,1441.00
2023-02-06T08:06:56.567Z,1453.00
2023-02-06T08:07:56.567Z,1460.00
2023-02-06T08:08:56.581Z,1466.00
2023-02-06T08:09:56.548Z,1471.00
2023-02-06T08:10:56.554Z,1475.00
2023-02-06T08:11:56.663Z,1476.00
2023-02-06T08:12:56.749Z,1481.00
2023-02-06T08:13:56.842Z,1490.00
2023-02-06T08:14:56.889Z,1491.00
2023-02-06T08:15:56.955Z,1493.00
2023-02-06T08:16:57.017Z,1495.00
2023-02-06T08:17:56.942Z,1500.00
2023-02-06T08:18:56.986Z,1509.00
2023-02-06T08:19:57.021Z,1512.00
2023-02-06T08:20:57.037Z,1512.00
2023-02-06T08:21:57.037Z,1514.00
2023-02-06T08:22:57.224Z,1516.00
2023-02-06T08:23:57.192Z,1517.00
2023-02-06T08:24:57.297Z,1520.00
2023-02-06T08:25:57.348Z,1522.00
2023-02-06T08:26:57.409Z,1529.00
2023-02-06T08:27:57.531Z,1531.00
2023-02-06T08:28:57.572Z,1534.00
2023-02-06T08:29:57.804Z,1544.00
2023-02-06T08:30:57.704Z,1559.00
2023-02-06T08:31:57.717Z,1576.00
2023-02-06T08:32:57.704Z,1608.00
2023-02-06T08:33:57.717Z,1628.00
2023-02-06T08:34:57.816Z,1631.00
2023-02-06T08:35:57.717Z,1693.00
2023-02-06T08:36:57.731Z,1686.00
2023-02-06T08:37:57.732Z,1460.00
2023-02-06T08:38:57.772Z,1443.00
2023-02-06T08:39:57.775Z,1432.00
2023-02-06T08:40:57.833Z,1486.00
2023-02-06T08:41:57.856Z,1461.00
2023-02-06T08:42:57.943Z,1387.00
2023-02-06T08:43:57.986Z,1439.00
2023-02-06T08:44:58.047Z,1426.00
2023-02-06T08:45:58.088Z,1311.00
2023-02-06T08:47:09.335Z,1343.00
2023-02-06T08:47:59.117Z,1079.00
2023-02-06T08:48:58.064Z,1236.00
2023-02-06T08:49:58.083Z,1102.00
2023-02-06T08:50:58.061Z,1239.00
2023-02-06T08:51:58.130Z,1262.00
2023-02-06T08:52:58.043Z,1260.00
2023-02-06T08:53:58.057Z,1096.00
2023-02-06T08:54:58.061Z,1093.00
2023-02-06T08:55:58.005Z,1073.00
2023-02-06T08:56:58.030Z,1169.00
2023-02-06T08:57:58.075Z,1149.00
2023-02-06T08:58:58.139Z,1133.00
2023-02-06T08:59:58.348Z,1043.00
2023-02-06T09:00:58.207Z,1004.00
2023-02-06T09:01:58.233Z,932.00
2023-02-06T09:02:58.291Z,917.00
2023-02-06T09:03:58.395Z,911.00
2023-02-06T09:04:58.446Z,912.00
2023-02-06T09:06:05.580Z,1038.00
2023-02-06T09:06:59.543Z,1058.00
2023-02-06T09:07:58.472Z,1047.00
2023-02-06T09:08:58.507Z,1043.00
2023-02-06T09:09:58.480Z,1026.00
2023-02-06T09:10:58.455Z,1029.00
2023-02-06T09:11:58.443Z,1030.00
2023-02-06T09:12:58.457Z,1042.00
2023-02-06T09:13:58.453Z,1052.00
2023-02-06T09:14:58.430Z,1064.00
2023-02-06T09:15:58.486Z,1084.00
2023-02-06T09:16:58.494Z,1103.00
2023-02-06T09:17:58.555Z,1129.00
2023-02-06T09:18:58.565Z,1142.00
2023-02-06T09:19:58.590Z,1157.00
2023-02-06T09:20:58.602Z,1171.00
2023-02-06T09:21:58.568Z,1183.00
2023-02-06T09:22:58.641Z,1198.00
2023-02-06T09:23:58.691Z,1214.00
2023-02-06T09:24:59.437Z,1231.00
2023-02-06T09:25:58.655Z,1254.00
2023-02-06T09:27:00.430Z,1277.00
2023-02-06T09:27:58.767Z,1294.00
2023-02-06T09:28:58.803Z,1311.00
2023-02-06T09:29:58.895Z,1330.00
2023-02-06T09:30:59.423Z,1347.00
2023-02-06T09:31:59.018Z,1405.00
2023-02-06T09:32:59.112Z,1437.00
2023-02-06T09:33:59.214Z,1457.00
2023-02-06T09:34:59.369Z,1475.00
2023-02-06T09:35:59.202Z,1478.00
2023-02-06T09:36:59.290Z,1479.00
2023-02-06T09:37:59.261Z,1480.00
2023-02-06T09:38:59.337Z,1483.00
2023-02-06T09:39:59.431Z,1488.00
2023-02-06T09:40:59.857Z,1492.00
2023-02-06T09:41:59.486Z,1496.00
2023-02-06T09:42:59.556Z,1497.00
2023-02-06T09:43:59.632Z,1496.00
2023-02-06T09:44:59.665Z,1497.00
2023-02-06T09:45:59.740Z,1494.00
2023-02-06T09:46:59.779Z,1491.00
2023-02-06T09:47:59.832Z,1491.00
2023-02-06T09:48:59.914Z,1490.00
2023-02-06T09:49:59.957Z,1486.00
2023-02-06T09:51:00.321Z,1481.00
2023-02-06T09:52:00.112Z,1479.00
2023-02-06T09:53:00.155Z,1477.00
2023-02-06T09:54:00.245Z,1510.00
2023-02-06T09:55:00.249Z,1261.00
2023-02-06T09:56:00.369Z,1219.00
2023-02-06T09:57:00.401Z,1196.00
2023-02-06T09:58:00.466Z,1200.00
2023-02-06T09:59:00.624Z,1220.00
2023-02-06T10:00:00.711Z,1171.00
2023-02-06T10:01:01.104Z,1190.00
2023-02-06T10:16:01.432Z,767.00
2023-02-06T10:17:01.174Z,731.00
2023-02-06T10:18:01.158Z,720.00
2023-02-06T10:19:01.172Z,749.00
2023-02-06T10:20:01.198Z,843.00
2023-02-06T10:21:01.409Z,811.00
2023-02-06T10:22:01.268Z,837.00
2023-02-06T10:25:01.324Z,948.00
2023-02-06T10:26:01.386Z,871.00
2023-02-06T10:27:01.374Z,865.00
2023-02-06T10:28:01.467Z,865.00
2023-02-06T10:29:01.457Z,874.00
2023-02-06T10:30:01.467Z,889.00
2023-02-06T10:31:01.710Z,804.00
2023-02-06T10:32:01.657Z,924.00
2023-02-06T10:33:01.594Z,917.00
2023-02-06T10:34:01.687Z,910.00
2023-02-06T10:35:01.691Z,915.00
2023-02-06T10:36:01.724Z,922.00
2023-02-06T10:37:01.915Z,917.00
2023-02-06T10:38:01.842Z,849.00
2023-02-06T10:39:01.910Z,711.00
2023-02-06T10:40:02.147Z,720.00
2023-02-06T10:41:02.458Z,902.00
2023-02-06T10:44:02.179Z,848.00
2023-02-06T10:45:19.090Z,758.00
2023-02-06T10:46:03.222Z,918.00
2023-02-06T10:47:02.650Z,918.00
2023-02-06T10:48:02.266Z,913.00
2023-02-06T10:49:02.273Z,910.00
2023-02-06T10:50:02.192Z,931.00
2023-02-06T10:52:02.392Z,1023.00
2023-02-06T10:53:02.184Z,1039.00
2023-02-06T10:55:02.259Z,1031.00
2023-02-06T10:56:03.861Z,1030.00
2023-02-06T10:57:57.102Z,1072.00
2023-02-06T10:58:57.027Z,1064.00
2023-02-06T10:59:57.005Z,1058.00
2023-02-06T11:00:57.152Z,1055.00
2023-02-06T11:01:58.653Z,1051.00
2023-02-06T11:03:06.764Z,993.00
2023-02-06T11:03:58.134Z,965.00
2023-02-06T11:04:57.128Z,999.00
2023-02-06T11:05:57.123Z,1019.00
2023-02-06T11:06:57.141Z,1035.00
2023-02-06T11:07:57.098Z,1034.00
2023-02-06T11:08:57.100Z,1027.00
2023-02-06T11:09:57.106Z,1029.00
2023-02-06T11:10:57.124Z,1019.00
2023-02-06T11:11:57.246Z,1028.00
2023-02-06T11:12:57.096Z,1039.00
2023-02-06T11:13:57.028Z,1044.00
2023-02-06T11:14:57.046Z,1050.00
2023-02-06T11:15:57.029Z,1051.00
2023-02-06T11:16:57.233Z,1052.00
2023-02-06T11:17:57.054Z,1053.00
2023-02-06T11:18:57.153Z,1063.00
2023-02-06T11:19:57.654Z,1067.00
2023-02-06T11:20:57.242Z,1073.00
2023-02-06T11:21:57.772Z,1079.00
2023-02-06T11:22:57.271Z,1082.00
2023-02-06T11:23:57.276Z,1072.00
2023-02-06T11:24:57.327Z,1067.00
2023-02-06T11:25:58.260Z,1068.00
2023-02-06T11:26:57.455Z,1084.00
2023-02-06T11:27:57.483Z,1036.00
2023-02-06T11:29:57.534Z,978.00
2023-02-06T11:30:57.677Z,968.00
2023-02-06T11:31:57.691Z,1051.00
2023-02-06T11:34:57.764Z,974.00
2023-02-06T11:35:57.959Z,943.00
2023-02-06T11:36:58.252Z,813.00
2023-02-06T11:37:57.904Z,933.00
2023-02-06T11:38:57.955Z,1024.00
2023-02-06T11:39:57.928Z,1066.00
2023-02-06T11:40:57.945Z,1135.00
2023-02-06T11:41:58.289Z,1151.00
2023-02-06T11:42:58.090Z,1058.00
2023-02-06T11:43:58.060Z,1071.00
2023-02-06T11:44:58.075Z,976.00
2023-02-06T11:45:58.165Z,974.00
2023-02-06T11:46:58.093Z,962.00
2023-02-06T11:47:58.124Z,969.00
2023-02-06T11:48:58.159Z,972.00
2023-02-06T11:49:58.246Z,978.00
2023-02-06T11:50:58.277Z,995.00
2023-02-06T11:51:58.357Z,1004.00
2023-02-06T11:52:58.223Z,1014.00
2023-02-06T11:53:58.232Z,1016.00
2023-02-06T11:54:58.237Z,1005.00
2023-02-06T11:55:58.304Z,1006.00
2023-02-06T12:06:00.361Z,669.00
2023-02-06T12:06:58.780Z,708.00
2023-02-06T12:08:58.590Z,829.00
2023-02-06T12:11:58.559Z,879.00
2023-02-06T12:13:58.661Z,854.00
2023-02-06T12:14:58.562Z,707.00
2023-02-06T12:15:58.549Z,673.00
2023-02-06T12:16:58.785Z,742.00
2023-02-06T12:18:58.545Z,879.00
2023-02-06T12:19:58.529Z,873.00
2023-02-06T12:20:58.481Z,864.00
2023-02-06T12:24:58.449Z,833.00
2023-02-06T12:25:58.462Z,825.00
2023-02-06T12:26:58.528Z,685.00
2023-02-06T15:05:45.509Z,813.00
2023-02-06T15:06:45.493Z,813.00
2023-02-06T15:07:45.476Z,811.00
2023-02-06T15:08:45.491Z,811.00
2023-02-06T15:09:45.480Z,811.00
2023-02-06T15:10:45.444Z,812.00
2023-02-06T15:11:45.494Z,814.00
2023-02-06T15:12:45.461Z,813.00
2023-02-06T15:13:45.453Z,815.00
2023-02-06T15:14:45.409Z,817.00
2023-02-06T15:15:45.420Z,816.00
2023-02-06T15:16:45.442Z,813.00
2023-02-06T15:17:45.434Z,813.00
2023-02-06T15:18:45.433Z,811.00
2023-02-06T15:19:45.388Z,812.00
2023-02-06T15:20:45.372Z,809.00
2023-02-06T15:21:45.410Z,811.00
2023-02-06T15:23:45.368Z,807.00
2023-02-06T15:24:45.368Z,801.00
2023-02-06T15:25:45.428Z,801.00
2023-02-06T15:26:45.432Z,803.00
2023-02-06T15:27:45.472Z,804.00
2023-02-06T15:28:45.471Z,803.00
2023-02-06T15:29:45.522Z,803.00
2023-02-06T15:30:45.567Z,799.00
2023-02-06T15:31:45.601Z,797.00
2023-02-06T15:32:45.593Z,796.00
2023-02-06T15:33:45.609Z,796.00
2023-02-06T15:34:45.663Z,794.00
2023-02-06T15:35:45.662Z,794.00
2023-02-06T15:36:45.720Z,792.00
2023-02-06T15:37:45.785Z,794.00
2023-02-06T15:38:45.784Z,792.00
2023-02-06T15:39:45.773Z,790.00
2023-02-06T15:40:45.876Z,790.00
2023-02-06T15:41:45.835Z,789.00
2023-02-06T15:42:45.920Z,789.00
2023-02-06T15:43:45.931Z,786.00
2023-02-06T15:44:45.945Z,786.00
2023-02-06T15:45:46.045Z,784.00
2023-02-06T15:46:48.389Z,785.00
2023-02-06T15:47:46.037Z,783.00
2023-02-06T15:48:45.981Z,786.00
2023-02-06T15:49:46.032Z,787.00
2023-02-06T15:50:46.000Z,787.00
2023-02-06T15:51:45.969Z,788.00
2023-02-06T15:52:45.961Z,788.00
2023-02-06T15:53:48.385Z,788.00
2023-02-06T15:54:46.152Z,784.00
2023-02-06T15:55:46.172Z,779.00
2023-02-06T15:56:46.179Z,778.00
2023-02-06T15:57:46.168Z,775.00
2023-02-06T15:58:46.191Z,775.00
2023-02-06T15:59:46.228Z,777.00
2023-02-06T16:00:46.274Z,777.00
2023-02-06T18:01:52.453Z,732.00
2023-02-06T18:02:52.502Z,733.00
2023-02-06T18:03:52.492Z,734.00
2023-02-06T18:04:52.565Z,735.00
2023-02-06T18:05:52.630Z,735.00
2023-02-06T18:06:52.642Z,736.00
2023-02-06T18:07:52.759Z,733.00
2023-02-06T18:08:52.778Z,733.00
2023-02-06T18:09:52.845Z,732.00
2023-02-06T18:10:52.892Z,734.00
2023-02-06T18:11:52.911Z,734.00
2023-02-06T18:12:52.995Z,732.00
2023-02-06T18:13:53.023Z,732.00
2023-02-06T18:14:53.102Z,731.00
2023-02-06T18:15:53.231Z,726.00
2023-02-06T18:16:53.331Z,727.00
2023-02-06T18:17:53.344Z,726.00
2023-02-06T18:18:53.352Z,726.00
2023-02-06T18:19:53.371Z,724.00
2023-02-06T18:20:53.432Z,724.00
2023-02-06T18:21:53.484Z,724.00
2023-02-06T18:22:53.577Z,723.00
2023-02-06T18:23:53.646Z,723.00
2023-02-06T18:24:53.723Z,722.00
2023-02-06T18:25:53.706Z,723.00
2023-02-06T18:26:53.751Z,724.00
2023-02-06T18:27:53.847Z,724.00
2023-02-06T18:28:53.842Z,723.00
2023-02-06T18:29:53.893Z,722.00
2023-02-06T18:30:53.980Z,721.00
2023-02-06T18:31:54.077Z,721.00
2023-02-06T18:32:54.039Z,721.00
2023-02-06T18:33:54.111Z,719.00
2023-02-06T18:34:54.166Z,721.00
2023-02-06T18:35:54.205Z,720.00
2023-02-06T18:36:54.233Z,717.00
2023-02-06T18:37:54.300Z,716.00
2023-02-06T18:38:54.311Z,716.00
2023-02-06T18:39:54.348Z,715.00
2023-02-06T18:40:54.420Z,716.00
2023-02-06T18:41:54.417Z,716.00
2023-02-06T18:42:54.476Z,717.00
2023-02-06T18:43:54.509Z,716.00
2023-02-06T18:44:54.604Z,716.00
2023-02-06T18:45:54.597Z,717.00
2023-02-06T18:46:54.708Z,720.00
2023-02-06T18:47:54.727Z,722.00
2023-02-06T18:48:54.774Z,721.00
2023-02-06T18:49:54.885Z,720.00
2023-02-06T18:50:56.481Z,718.00
2023-02-06T18:51:55.047Z,719.00
2023-02-06T18:52:55.082Z,719.00
2023-02-06T18:53:55.161Z,717.00
2023-02-06T18:54:55.240Z,715.00
2023-02-06T18:55:55.229Z,716.00
2023-02-06T18:56:55.331Z,715.00
2023-02-06T18:57:55.404Z,716.00
2023-02-06T18:58:55.460Z,717.00
2023-02-06T18:59:55.471Z,715.00
2023-02-06T19:00:55.568Z,720.00
2023-02-06T19:01:55.619Z,720.00
2023-02-06T19:02:55.587Z,720.00
2023-02-06T19:03:55.640Z,720.00
2023-02-06T19:04:55.699Z,718.00
2023-02-06T19:05:55.714Z,719.00
2023-02-06T19:06:55.774Z,720.00
2023-02-06T19:07:55.801Z,719.00
2023-02-06T19:08:55.832Z,715.00
2023-02-06T19:09:55.885Z,716.00
2023-02-06T19:10:55.939Z,715.00
2023-02-06T19:11:56.023Z,716.00
2023-02-06T19:12:56.055Z,717.00
2023-02-06T19:13:56.139Z,713.00
2023-02-06T19:14:56.125Z,710.00
2023-02-06T19:15:56.198Z,709.00
2023-02-06T19:16:56.213Z,710.00
2023-02-06T19:17:56.371Z,714.00
2023-02-06T19:18:56.313Z,714.00
2023-02-06T19:19:56.331Z,712.00
2023-02-06T19:20:56.390Z,712.00
2023-02-06T19:21:56.440Z,711.00
2023-02-06T19:22:56.494Z,709.00
2023-02-06T19:23:56.520Z,706.00
2023-02-06T19:24:56.570Z,705.00
2023-02-06T19:25:56.604Z,704.00
2023-02-06T19:26:56.667Z,704.00
2023-02-06T19:27:56.748Z,702.00
2023-02-06T19:28:56.795Z,703.00
2023-02-06T19:29:56.793Z,703.00
2023-02-06T19:30:56.948Z,704.00
2023-02-06T19:31:56.938Z,704.00
2023-02-06T19:32:56.937Z,705.00
2023-02-06T19:33:57.026Z,708.00
2023-02-06T19:34:57.089Z,707.00
2023-02-06T19:35:57.103Z,706.00
2023-02-06T19:36:57.147Z,704.00
2023-02-06T19:37:57.225Z,706.00
2023-02-06T19:38:57.231Z,707.00
2023-02-06T19:39:57.269Z,708.00
2023-02-06T19:40:57.313Z,709.00
2023-02-06T19:41:57.330Z,707.00
2023-02-06T19:42:57.411Z,707.00
2023-02-06T19:43:57.405Z,706.00
2023-02-06T19:44:57.424Z,708.00
2023-02-06T19:45:57.436Z,709.00
2023-02-06T19:46:57.581Z,711.00
2023-02-06T19:47:57.495Z,709.00
2023-02-06T19:48:57.496Z,710.00
2023-02-06T19:49:57.553Z,710.00
2023-02-06T19:50:57.522Z,708.00
2023-02-06T19:51:57.551Z,707.00
2023-02-06T19:52:57.625Z,703.00
2023-02-06T19:53:57.637Z,700.00
2023-02-06T19:54:57.675Z,702.00
2023-02-06T19:55:57.702Z,701.00
2023-02-06T19:56:57.693Z,701.00
2023-02-06T19:57:57.751Z,701.00
2023-02-06T19:58:57.815Z,700.00
2023-02-06T19:59:57.785Z,700.00
2023-02-06T20:00:57.847Z,699.00
2023-02-06T20:01:57.842Z,698.00
2023-02-06T20:02:57.890Z,697.00
2023-02-06T20:03:57.880Z,695.00
2023-02-06T20:04:57.881Z,694.00
2023-02-06T20:05:57.873Z,696.00
2023-02-06T20:06:57.857Z,696.00
2023-02-06T20:07:57.925Z,697.00
2023-02-06T20:08:57.933Z,695.00
2023-02-06T20:09:57.894Z,693.00
2023-02-06T20:10:57.891Z,692.00
2023-02-06T20:11:57.920Z,691.00
2023-02-06T20:12:57.947Z,693.00
2023-02-06T20:13:57.932Z,694.00
2023-02-06T20:14:57.943Z,696.00
2023-02-06T20:15:57.980Z,698.00